createdAt,value
2022-09-15T00:01:10.894Z,98473.16
2022-09-15T00:03:44.624Z,98475.59
2022-09-15T00:06:12.416Z,98473.63
2022-09-15T00:08:39.767Z,98469.34
2022-09-15T00:11:23.185Z,98469.09
2022-09-15T00:13:54.623Z,98462.03
2022-09-15T00:16:23.897Z,98456.56
2022-09-15T00:18:51.092Z,98460.81
2022-09-15T00:21:21.666Z,98457.88
2022-09-15T00:23:49.419Z,98459.72
2022-09-15T00:26:22.810Z,98460.34
2022-09-15T00:28:50.356Z,98466.44
2022-09-15T00:31:20.479Z,98462.88
2022-09-15T00:33:48.975Z,98456.69
2022-09-15T00:36:16.880Z,98468.63
2022-09-15T00:38:44.949Z,98464.47
2022-09-15T00:41:33.614Z,98452.88
2022-09-15T00:44:36.926Z,98461.31
2022-09-15T00:47:18.815Z,98463.75
2022-09-15T00:49:51.014Z,98462.88
2022-09-15T00:52:24.002Z,98463.00
2022-09-15T00:55:06.189Z,98465.09
2022-09-15T00:57:35.822Z,98463.50
2022-09-15T01:00:08.587Z,98459.97
2022-09-15T01:02:37.374Z,98452.03
2022-09-15T01:05:11.672Z,98456.41
2022-09-15T01:07:53.767Z,98450.41
2022-09-15T01:10:33.504Z,98454.72
2022-09-15T01:13:03.989Z,98452.00
2022-09-15T01:16:03.151Z,98457.13
2022-09-15T01:22:12.780Z,98454.72
2022-09-15T01:24:45.000Z,98463.22
2022-09-15T01:27:43.253Z,98457.63
2022-09-15T01:30:12.700Z,98460.31
2022-09-15T01:33:06.925Z,98444.19
2022-09-15T01:35:40.559Z,98442.25
2022-09-15T01:38:38.625Z,98434.31
2022-09-15T01:41:08.394Z,98435.75
2022-09-15T01:43:42.863Z,98442.13
2022-09-15T01:46:17.297Z,98447.50
2022-09-15T01:48:49.512Z,98439.34
2022-09-15T01:51:16.899Z,98439.22
2022-09-15T01:53:46.156Z,98436.66
2022-09-15T01:56:13.535Z,98427.63
2022-09-15T01:58:41.598Z,98432.88
2022-09-15T02:01:14.576Z,98427.84
2022-09-15T02:03:48.916Z,98425.66
2022-09-15T02:06:27.621Z,98427.97
2022-09-15T02:09:01.469Z,98423.81
2022-09-15T02:11:30.546Z,98441.41
2022-09-15T02:14:18.502Z,98438.59
2022-09-15T02:16:50.084Z,98429.94
2022-09-15T02:19:22.312Z,98428.09
2022-09-15T02:21:54.036Z,98434.34
2022-09-15T02:24:28.895Z,98423.97
2022-09-15T02:26:56.582Z,98422.97
2022-09-15T02:29:28.437Z,98432.88
2022-09-15T02:32:06.785Z,98420.78
2022-09-15T02:34:43.897Z,98427.38
2022-09-15T02:37:11.889Z,98424.69
2022-09-15T02:39:44.367Z,98413.47
2022-09-15T02:42:24.589Z,98423.47
2022-09-15T02:44:52.590Z,98408.31
2022-09-15T02:47:19.536Z,98417.47
2022-09-15T02:49:46.659Z,98408.56
2022-09-15T02:52:14.152Z,98408.53
2022-09-15T02:54:48.918Z,98407.56
2022-09-15T02:57:16.564Z,98403.38
2022-09-15T03:00:20.538Z,98418.25
2022-09-15T03:02:52.026Z,98419.25
2022-09-15T03:05:21.771Z,98425.34
2022-09-15T03:07:49.215Z,98431.84
2022-09-15T03:10:16.428Z,98429.50
2022-09-15T03:12:51.581Z,98440.47
2022-09-15T03:15:23.268Z,98441.34
2022-09-15T03:17:53.352Z,98441.34
2022-09-15T03:20:23.683Z,98444.38
2022-09-15T03:22:53.198Z,98447.81
2022-09-15T03:25:21.216Z,98443.44
2022-09-15T03:27:48.351Z,98445.25
2022-09-15T03:30:15.848Z,98447.09
2022-09-15T03:32:47.448Z,98452.25
2022-09-15T03:35:14.608Z,98449.28
2022-09-15T03:37:41.654Z,98448.53
2022-09-15T03:40:10.833Z,98441.97
2022-09-15T03:42:41.427Z,98436.09
2022-09-15T03:45:08.707Z,98439.06
2022-09-15T03:47:35.619Z,98439.19
2022-09-15T03:50:02.865Z,98440.56
2022-09-15T03:52:32.812Z,98430.44
2022-09-15T03:55:00.677Z,98434.56
2022-09-15T03:57:27.858Z,98436.03
2022-09-15T03:59:54.784Z,98432.84
2022-09-15T04:02:21.785Z,98432.97
2022-09-15T04:04:49.548Z,98431.63
2022-09-15T04:07:16.632Z,98430.06
2022-09-15T04:09:43.791Z,98432.84
2022-09-15T04:12:11.053Z,98430.91
2022-09-15T04:14:38.115Z,98431.25
2022-09-15T04:17:07.347Z,98432.47
2022-09-15T04:19:37.233Z,98437.97
2022-09-15T04:22:04.288Z,98438.66
2022-09-15T04:24:33.381Z,98437.69
2022-09-15T04:27:00.635Z,98438.41
2022-09-15T04:29:27.628Z,98446.09
2022-09-15T04:31:54.646Z,98445.38
2022-09-15T04:34:21.817Z,98453.06
2022-09-15T04:36:48.770Z,98443.19
2022-09-15T04:39:15.796Z,98438.41
2022-09-15T04:41:43.099Z,98429.03
2022-09-15T04:44:10.143Z,98428.53
2022-09-15T04:46:37.634Z,98426.72
2022-09-15T04:49:05.046Z,98432.84
2022-09-15T04:51:32.033Z,98436.63
2022-09-15T04:53:59.183Z,98436.84
2022-09-15T04:56:27.469Z,98442.47
2022-09-15T04:59:02.500Z,98439.06
2022-09-15T05:01:36.150Z,98448.69
2022-09-15T05:04:04.398Z,98442.72
2022-09-15T05:06:31.947Z,98446.25
2022-09-15T05:09:04.457Z,98437.41
2022-09-15T05:11:39.473Z,98430.56
2022-09-15T05:14:08.122Z,98435.06
2022-09-15T05:16:35.752Z,98441.75
2022-09-15T05:19:04.606Z,98441.03
2022-09-15T05:21:32.195Z,98453.72
2022-09-15T05:23:59.299Z,98451.97
2022-09-15T05:26:28.450Z,98468.06
2022-09-15T05:28:57.171Z,98470.41
2022-09-15T05:31:27.285Z,98471.25
2022-09-15T05:33:54.896Z,98483.34
2022-09-15T05:36:25.676Z,98485.44
2022-09-15T05:38:54.102Z,98488.66
2022-09-15T05:41:21.680Z,98490.78
2022-09-15T05:43:50.828Z,98498.59
2022-09-15T05:46:21.561Z,98497.69
2022-09-15T05:48:48.713Z,98507.91
2022-09-15T05:51:16.041Z,98509.88
2022-09-15T05:53:43.086Z,98503.50
2022-09-15T05:56:12.608Z,98507.38
2022-09-15T05:58:41.512Z,98511.41
2022-09-15T06:01:13.454Z,98497.88
2022-09-15T06:03:41.061Z,98500.75
2022-09-15T06:06:08.227Z,98500.00
2022-09-15T06:08:39.684Z,98510.63
2022-09-15T06:11:12.358Z,98503.31
2022-09-15T06:13:40.359Z,98515.13
2022-09-15T06:16:12.418Z,98501.13
2022-09-15T06:18:42.267Z,98496.72
2022-09-15T06:21:13.212Z,98512.16
2022-09-15T06:23:50.068Z,98517.69
2022-09-15T06:26:19.614Z,98523.44
2022-09-15T06:28:55.706Z,98519.22
2022-09-15T06:31:24.176Z,98515.28
2022-09-15T06:33:53.424Z,98526.56
2022-09-15T06:36:22.989Z,98532.97
2022-09-15T06:38:52.895Z,98538.28
2022-09-15T06:41:58.440Z,98545.06
2022-09-15T06:44:20.659Z,98540.84
2022-09-15T06:46:48.898Z,98548.72
2022-09-15T06:49:16.293Z,98543.88
2022-09-15T06:51:43.252Z,98555.66
2022-09-15T06:54:10.774Z,98553.69
2022-09-15T06:56:40.938Z,98565.81
2022-09-15T06:59:08.201Z,98549.16
2022-09-15T07:01:41.085Z,98548.13
2022-09-15T07:04:10.636Z,98560.16
2022-09-15T07:06:39.502Z,98568.38
2022-09-15T07:09:06.986Z,98574.88
2022-09-15T07:11:34.312Z,98572.47
2022-09-15T07:14:04.234Z,98580.38
2022-09-15T07:16:31.409Z,98578.22
2022-09-15T07:19:01.348Z,98577.00
2022-09-15T07:21:28.833Z,98574.03
2022-09-15T07:24:02.514Z,98580.38
2022-09-15T07:26:32.399Z,98575.31
2022-09-15T07:29:02.646Z,98589.09
2022-09-15T07:31:35.399Z,98581.34
2022-09-15T07:34:03.583Z,98578.53
2022-09-15T07:36:31.308Z,98576.44
2022-09-15T07:38:58.746Z,98561.91
2022-09-15T07:41:28.947Z,98561.56
2022-09-15T07:43:58.452Z,98562.84
2022-09-15T07:46:29.249Z,98560.88
2022-09-15T07:48:59.031Z,98563.34
2022-09-15T07:51:26.366Z,98577.47
2022-09-15T07:53:54.963Z,98567.91
2022-09-15T07:56:24.591Z,98576.09
2022-09-15T07:58:51.824Z,98570.56
2022-09-15T08:01:22.498Z,98559.00
2022-09-15T08:03:52.204Z,98561.19
2022-09-15T08:06:24.764Z,98556.75
2022-09-15T08:08:56.299Z,98555.16
2022-09-15T08:11:29.368Z,98563.03
2022-09-15T08:13:56.388Z,98564.41
2022-09-15T08:16:24.629Z,98561.06
2022-09-15T08:18:53.820Z,98565.75
2022-09-15T08:21:22.303Z,98574.66
2022-09-15T08:23:56.156Z,98566.19
2022-09-15T08:26:24.533Z,98578.41
2022-09-15T08:28:54.140Z,98585.91
2022-09-15T08:31:21.452Z,98586.63
2022-09-15T08:33:53.260Z,98584.25
2022-09-15T08:36:20.718Z,98591.00
2022-09-15T08:38:48.315Z,98586.34
2022-09-15T08:41:53.099Z,98581.63
2022-09-15T08:44:32.058Z,98572.88
2022-09-15T08:47:05.983Z,98559.00
2022-09-15T08:49:51.905Z,98566.84
2022-09-15T08:52:35.341Z,98554.63
2022-09-15T08:55:12.069Z,98554.47
2022-09-15T08:57:41.547Z,98537.66
2022-09-15T09:00:16.102Z,98541.13
2022-09-15T09:02:55.083Z,98547.16
2022-09-15T09:06:06.947Z,98541.03
2022-09-15T09:08:56.218Z,98542.78
2022-09-15T09:11:32.271Z,98537.84
2022-09-15T09:14:20.714Z,98533.59
2022-09-15T09:17:01.580Z,98538.69
2022-09-15T09:19:34.978Z,98533.28
2022-09-15T09:22:18.002Z,98544.13
2022-09-15T09:24:51.935Z,98532.03
2022-09-15T09:27:33.798Z,98527.56
2022-09-15T09:30:14.401Z,98541.19
2022-09-15T09:32:53.490Z,98543.34
2022-09-15T09:35:23.656Z,98533.53
2022-09-15T09:37:52.358Z,98541.16
2022-09-15T09:40:20.583Z,98535.03
2022-09-15T09:42:48.050Z,98535.78
2022-09-15T09:45:17.247Z,98525.94
2022-09-15T09:47:46.501Z,98528.44
2022-09-15T09:50:42.915Z,98521.78
2022-09-15T09:53:33.705Z,98524.22
2022-09-15T09:56:19.897Z,98514.78
2022-09-15T09:58:46.954Z,98510.13
2022-09-15T10:01:25.767Z,98502.81
2022-09-15T10:04:22.750Z,98493.94
2022-09-15T10:06:50.057Z,98499.47
2022-09-15T10:09:19.848Z,98489.34
2022-09-15T10:11:53.864Z,98497.19
2022-09-15T10:14:36.947Z,98485.72
2022-09-15T10:17:16.706Z,98486.44
2022-09-15T10:19:50.371Z,98484.25
2022-09-15T10:22:24.684Z,98492.06
2022-09-15T10:24:51.866Z,98486.03
2022-09-15T10:27:34.713Z,98492.47
2022-09-15T10:30:13.861Z,98495.81
2022-09-15T10:32:43.269Z,98506.03
2022-09-15T10:35:18.286Z,98510.41
2022-09-15T10:38:15.953Z,98518.06
2022-09-15T10:40:49.032Z,98519.06
2022-09-15T10:43:25.145Z,98533.59
2022-09-15T10:46:24.079Z,98525.75
2022-09-15T10:48:53.924Z,98516.69
2022-09-15T10:51:29.363Z,98512.31
2022-09-15T10:54:14.604Z,98513.75
2022-09-15T10:56:56.292Z,98506.69
2022-09-15T10:59:26.150Z,98500.00
2022-09-15T11:02:09.467Z,98508.97
2022-09-15T11:04:42.827Z,98505.94
2022-09-15T11:07:31.317Z,98500.59
2022-09-15T11:10:20.327Z,98499.88
2022-09-15T11:12:56.390Z,98505.06
2022-09-15T11:15:54.754Z,98509.22
2022-09-15T11:18:41.141Z,98512.25
2022-09-15T11:21:43.027Z,98500.38
2022-09-15T11:24:38.362Z,98503.47
2022-09-15T11:27:08.352Z,98509.38
2022-09-15T11:29:48.004Z,98501.16
2022-09-15T11:32:25.750Z,98494.97
2022-09-15T11:35:16.696Z,98492.44
2022-09-15T11:37:48.431Z,98495.53
2022-09-15T11:40:29.132Z,98485.63
2022-09-15T11:43:05.125Z,98489.72
2022-09-15T11:45:43.573Z,98489.97
2022-09-15T11:48:18.678Z,98491.41
2022-09-15T11:50:49.184Z,98494.47
2022-09-15T11:53:26.759Z,98503.69
2022-09-15T11:56:02.053Z,98487.47
2022-09-15T11:58:36.321Z,98477.13
2022-09-15T12:01:10.793Z,98480.78
2022-09-15T12:03:58.096Z,98468.09
2022-09-15T12:06:37.276Z,98460.16
2022-09-15T12:09:07.083Z,98466.16
2022-09-15T12:11:43.205Z,98460.31
2022-09-15T12:14:18.974Z,98463.13
2022-09-15T12:16:46.638Z,98469.84
2022-09-15T12:19:33.544Z,98444.69
2022-09-15T12:22:17.836Z,98455.66
2022-09-15T12:25:00.729Z,98450.88
2022-09-15T12:27:28.974Z,98444.91
2022-09-15T12:29:57.884Z,98445.88
2022-09-15T12:32:29.385Z,98453.31
2022-09-15T12:35:02.645Z,98440.75
2022-09-15T12:37:54.036Z,98442.34
2022-09-15T12:40:24.499Z,98442.97
2022-09-15T12:42:54.317Z,98435.28
2022-09-15T12:45:35.967Z,98438.56
2022-09-15T12:48:23.896Z,98429.31
2022-09-15T12:50:58.659Z,98426.63
2022-09-15T12:53:32.300Z,98426.97
2022-09-15T12:56:01.125Z,98421.31
2022-09-15T12:58:39.258Z,98425.09
2022-09-15T13:01:18.968Z,98428.72
2022-09-15T13:03:46.665Z,98417.94
2022-09-15T13:06:16.654Z,98408.84
2022-09-15T13:09:02.087Z,98401.19
2022-09-15T13:11:38.363Z,98384.94
2022-09-15T13:14:08.830Z,98387.75
2022-09-15T13:16:48.794Z,98372.91
2022-09-15T13:19:41.279Z,98360.81
2022-09-15T13:22:11.697Z,98364.63
2022-09-15T13:25:03.804Z,98382.69
2022-09-15T13:27:38.526Z,98372.03
2022-09-15T13:30:20.809Z,98379.84
2022-09-15T13:32:57.121Z,98375.81
2022-09-15T13:35:52.777Z,98372.91
2022-09-15T13:38:41.321Z,98379.97
2022-09-15T13:41:34.879Z,98381.16
2022-09-15T13:44:08.064Z,98383.44
2022-09-15T13:46:38.236Z,98383.78
2022-09-15T13:49:23.349Z,98385.59
2022-09-15T13:52:19.481Z,98377.03
2022-09-15T13:55:14.566Z,98375.16
2022-09-15T14:00:38.145Z,98370.00
2022-09-15T14:03:18.597Z,98366.13
2022-09-15T14:05:46.234Z,98368.66
2022-09-15T14:08:23.984Z,98367.50
2022-09-15T14:10:59.816Z,98377.25
2022-09-15T14:13:29.047Z,98382.47
2022-09-15T14:16:43.312Z,98390.22
2022-09-15T14:19:38.806Z,98394.31
2022-09-15T14:22:26.170Z,98393.84
2022-09-15T14:24:54.163Z,98386.78
2022-09-15T14:27:25.113Z,98391.16
2022-09-15T14:30:00.265Z,98388.22
2022-09-15T14:32:28.301Z,98394.31
2022-09-15T14:34:59.789Z,98387.41
2022-09-15T14:37:29.439Z,98382.59
2022-09-15T14:40:00.620Z,98380.00
2022-09-15T14:42:32.783Z,98376.25
2022-09-15T14:48:00.557Z,98385.22
2022-09-15T14:50:32.905Z,98395.53
2022-09-15T14:53:17.917Z,98397.41
2022-09-15T14:56:16.893Z,98399.50
2022-09-15T14:58:52.752Z,98405.66
2022-09-15T15:01:34.950Z,98409.53
2022-09-15T15:04:20.462Z,98406.69
2022-09-15T15:07:00.767Z,98415.84
2022-09-15T15:09:33.706Z,98416.38
2022-09-15T15:12:05.260Z,98416.47
2022-09-15T15:14:33.985Z,98425.31
2022-09-15T15:17:06.362Z,98449.69
2022-09-15T15:19:42.176Z,98434.75
2022-09-15T15:22:12.268Z,98432.50
2022-09-15T15:24:49.660Z,98415.75
2022-09-15T15:27:35.111Z,98431.44
2022-09-15T15:30:21.240Z,98421.00
2022-09-15T15:32:50.968Z,98428.56
2022-09-15T15:35:22.693Z,98428.38
2022-09-15T15:37:59.679Z,98414.91
2022-09-15T15:40:29.681Z,98422.00
2022-09-15T15:43:02.683Z,98420.88
2022-09-15T15:45:48.387Z,98417.66
2022-09-15T15:48:16.009Z,98419.66
2022-09-15T15:50:43.175Z,98422.44
2022-09-15T15:53:10.068Z,98428.41
2022-09-15T15:55:40.094Z,98437.47
2022-09-15T15:58:08.713Z,98432.81
2022-09-15T16:00:56.880Z,98455.69
2022-09-15T16:03:25.705Z,98466.47
2022-09-15T16:05:56.851Z,98471.13
2022-09-15T16:08:31.236Z,98470.19
2022-09-15T16:11:01.599Z,98482.44
2022-09-15T16:13:29.390Z,98479.28
2022-09-15T16:16:00.237Z,98484.16
2022-09-15T16:18:32.646Z,98481.03
2022-09-15T16:20:59.657Z,98479.97
2022-09-15T16:23:26.581Z,98478.00
2022-09-15T16:25:59.537Z,98481.41
2022-09-15T16:28:28.980Z,98491.31
2022-09-15T16:30:57.154Z,98492.78
2022-09-15T16:33:25.469Z,98480.81
2022-09-15T16:36:04.006Z,98480.34
2022-09-15T16:38:31.191Z,98478.25
2022-09-15T16:40:58.188Z,98472.78
2022-09-15T16:43:25.604Z,98483.38
2022-09-15T16:45:55.278Z,98490.63
2022-09-15T16:48:22.559Z,98497.06
2022-09-15T16:51:16.797Z,98509.38
2022-09-15T16:53:39.665Z,98507.53
2022-09-15T16:56:12.616Z,98522.41
2022-09-15T16:58:41.560Z,98518.25
2022-09-15T17:01:17.773Z,98514.19
2022-09-15T17:03:48.283Z,98521.34
2022-09-15T17:06:17.739Z,98532.16
2022-09-15T17:08:45.313Z,98538.84
2022-09-15T17:11:18.629Z,98544.31
2022-09-15T17:13:47.538Z,98546.13
2022-09-15T17:16:17.656Z,98546.38
2022-09-15T17:18:45.235Z,98545.47
2022-09-15T17:21:13.753Z,98547.09
2022-09-15T17:23:46.023Z,98543.19
2022-09-15T17:26:18.567Z,98537.63
2022-09-15T17:28:46.134Z,98534.72
2022-09-15T17:31:17.635Z,98536.25
2022-09-15T17:33:48.556Z,98539.81
2022-09-15T17:36:16.695Z,98542.66
2022-09-15T17:38:45.411Z,98546.84
2022-09-15T17:41:15.335Z,98544.72
2022-09-15T17:43:42.771Z,98548.28
2022-09-15T17:46:09.809Z,98539.44
2022-09-15T17:48:39.154Z,98540.38
2022-09-15T17:51:07.521Z,98536.56
2022-09-15T17:53:34.585Z,98531.56
2022-09-15T17:56:02.101Z,98543.94
2022-09-15T17:58:31.529Z,98535.13
2022-09-15T18:00:59.762Z,98526.44
2022-09-15T18:03:30.879Z,98517.75
2022-09-15T18:06:00.189Z,98521.34
2022-09-15T18:08:28.012Z,98521.75
2022-09-15T18:10:56.069Z,98517.50
2022-09-15T18:13:27.579Z,98507.78
2022-09-15T18:15:55.435Z,98498.69
2022-09-15T18:18:25.723Z,98498.25
2022-09-15T18:20:58.321Z,98483.56
2022-09-15T18:23:29.922Z,98487.41
2022-09-15T18:25:57.901Z,98489.19
2022-09-15T18:28:25.364Z,98482.31
2022-09-15T18:30:52.874Z,98488.34
2022-09-15T18:33:25.000Z,98492.88
2022-09-15T18:35:55.890Z,98501.56
2022-09-15T18:38:23.908Z,98494.97
2022-09-15T18:40:53.839Z,98504.38
2022-09-15T18:43:26.619Z,98518.03
2022-09-15T18:45:59.683Z,98515.84
2022-09-15T18:48:27.724Z,98519.53
2022-09-15T18:50:55.164Z,98522.88
2022-09-15T18:53:23.018Z,98522.31
2022-09-15T18:55:50.471Z,98520.38
2022-09-15T18:58:19.560Z,98521.88
2022-09-15T19:00:47.133Z,98520.53
2022-09-15T19:03:14.558Z,98514.22
2022-09-15T19:05:42.280Z,98514.81
2022-09-15T19:08:13.181Z,98520.41
2022-09-15T19:10:44.125Z,98520.25
2022-09-15T19:13:14.185Z,98526.13
2022-09-15T19:15:43.893Z,98530.53
2022-09-15T19:18:11.636Z,98534.94
2022-09-15T19:20:40.492Z,98539.94
2022-09-15T19:23:10.935Z,98540.25
2022-09-15T19:25:43.118Z,98548.47
2022-09-15T19:28:11.032Z,98544.66
2022-09-15T19:30:40.682Z,98563.34
2022-09-15T19:33:08.212Z,98558.75
2022-09-15T19:35:35.821Z,98563.31
2022-09-15T19:38:05.555Z,98570.81
2022-09-15T19:40:32.806Z,98567.72
2022-09-15T19:43:02.771Z,98565.50
2022-09-15T19:45:32.393Z,98563.75
2022-09-15T19:47:59.662Z,98568.16
2022-09-15T19:50:27.035Z,98571.69
2022-09-15T19:52:57.565Z,98573.16
2022-09-15T19:55:28.853Z,98573.31
2022-09-15T19:57:55.933Z,98577.69
2022-09-15T20:00:22.862Z,98581.53
2022-09-15T20:02:50.385Z,98583.00
2022-09-15T20:08:02.172Z,98587.63
2022-09-15T20:10:29.115Z,98589.69
2022-09-15T20:12:55.991Z,98595.16
2022-09-15T20:15:23.147Z,98600.78
2022-09-15T20:17:50.096Z,98610.47
2022-09-15T20:20:18.162Z,98613.28
2022-09-15T20:22:45.269Z,98609.16
2022-09-15T20:25:14.713Z,98624.47
2022-09-15T20:27:43.309Z,98622.13
2022-09-15T20:30:23.352Z,98634.06
2022-09-15T20:32:50.328Z,98638.06
2022-09-15T20:35:17.606Z,98637.16
2022-09-15T20:37:49.632Z,98630.81
2022-09-15T20:40:17.692Z,98634.66
2022-09-15T20:42:44.975Z,98637.31
2022-09-15T20:45:12.123Z,98637.31
2022-09-15T20:47:41.735Z,98639.09
2022-09-15T20:50:09.231Z,98649.69
2022-09-15T20:52:38.775Z,98640.28
2022-09-15T20:55:06.096Z,98648.69
2022-09-15T20:57:33.245Z,98662.78
2022-09-15T21:00:00.187Z,98668.84
2022-09-15T21:02:29.758Z,98680.03
2022-09-15T21:04:57.085Z,98685.94
2022-09-15T21:07:24.099Z,98687.41
2022-09-15T21:09:51.166Z,98701.09
2022-09-15T21:12:21.176Z,98705.94
2022-09-15T21:14:48.232Z,98706.53
2022-09-15T21:17:16.642Z,98710.09
2022-09-15T21:19:43.889Z,98727.31
2022-09-15T21:22:11.023Z,98733.63
2022-09-15T21:24:38.078Z,98744.22
2022-09-15T21:27:23.750Z,98763.75
2022-09-15T21:29:50.717Z,98763.31
2022-09-15T21:32:18.481Z,98763.13
2022-09-15T21:34:47.335Z,98772.06
2022-09-15T21:37:15.006Z,98768.66
2022-09-15T21:39:42.357Z,98763.78
2022-09-15T21:42:10.749Z,98759.06
2022-09-15T21:44:37.650Z,98758.44
2022-09-15T21:47:07.162Z,98764.56
2022-09-15T21:49:34.225Z,98762.03
2022-09-15T21:52:01.179Z,98766.41
2022-09-15T21:54:28.349Z,98774.56
2022-09-15T21:56:55.508Z,98772.94
2022-09-15T21:59:22.527Z,98776.56
2022-09-15T22:01:49.910Z,98771.81
2022-09-15T22:04:16.924Z,98783.06
2022-09-15T22:06:45.108Z,98782.44
2022-09-15T22:09:17.823Z,98776.53
2022-09-15T22:11:44.841Z,98780.63
2022-09-15T22:14:13.170Z,98777.53
2022-09-15T22:16:42.532Z,98781.13
2022-09-15T22:19:11.704Z,98782.38
2022-09-15T22:21:42.028Z,98778.66
2022-09-15T22:24:13.421Z,98779.81
2022-09-15T22:26:43.788Z,98794.75
2022-09-15T22:29:14.334Z,98803.94
2022-09-15T22:31:42.232Z,98817.47
2022-09-15T22:34:09.712Z,98818.53
2022-09-15T22:36:36.870Z,98810.34
2022-09-15T22:39:05.649Z,98809.44
2022-09-15T22:41:39.167Z,98820.44
2022-09-15T22:44:07.662Z,98827.88
2022-09-15T22:46:35.123Z,98826.72
2022-09-15T22:49:02.185Z,98829.13
2022-09-15T22:51:29.664Z,98828.41
2022-09-15T22:53:57.270Z,98827.81
2022-09-15T22:56:28.669Z,98840.13
2022-09-15T22:58:58.383Z,98843.31
2022-09-15T23:01:28.239Z,98857.28
2022-09-15T23:03:57.529Z,98848.00
2022-09-15T23:06:27.744Z,98851.53
2022-09-15T23:08:58.489Z,98854.31
2022-09-15T23:11:27.789Z,98858.56
2022-09-15T23:13:55.881Z,98859.88
2022-09-15T23:16:24.406Z,98866.19
2022-09-15T23:18:53.540Z,98857.09
2022-09-15T23:21:23.439Z,98859.88
2022-09-15T23:23:53.489Z,98866.59
2022-09-15T23:26:22.679Z,98871.44
2022-09-15T23:28:49.978Z,98873.66
2022-09-15T23:31:17.376Z,98870.03
2022-09-15T23:33:44.894Z,98872.25
2022-09-15T23:36:15.175Z,98877.66
2022-09-15T23:38:45.037Z,98871.34
2022-09-15T23:41:14.116Z,98875.28
2022-09-15T23:43:43.495Z,98876.41
2022-09-15T23:46:10.832Z,98874.44
2022-09-15T23:48:38.427Z,98871.13
2022-09-15T23:51:05.891Z,98872.44
2022-09-15T23:53:33.567Z,98862.59
2022-09-15T23:56:00.916Z,98862.78
2022-09-15T23:58:27.918Z,98874.19
